Time;durP1;ratioP1;P1;durP2;ratioP2;P2;SDS_P1;SDS_P2;PMS_P1;PMS_P2;Temp;Humidity;BMP_temperature;BMP_pressure;BME280_temperature;BME280_humidity;BME280_pressure;Samples;Min_cycle;Max_cycle;Signal;HPM_P1;HPM_P2
2023/10/14 00:01:36;;;;;;;1.35;1.00;;;20.10;74.60;;;;;;5005612;28;20026;-80
2023/10/14 00:04:09;;;;;;;1.48;1.15;;;20.00;74.70;;;;;;5017437;28;20050;-79
2023/10/14 00:06:38;;;;;;;1.55;1.00;;;20.00;74.70;;;;;;5020347;28;20086;-79
2023/10/14 00:09:22;;;;;;;1.67;0.90;;;19.90;74.70;;;;;;5017487;28;20033;-79
2023/10/14 00:11:54;;;;;;;0.73;0.73;;;19.90;74.70;;;;;;5037051;28;20028;-79
2023/10/14 00:14:21;;;;;;;1.52;0.90;;;19.90;74.70;;;;;;5014835;28;20125;-80
2023/10/14 00:16:50;;;;;;;1.05;0.80;;;19.90;74.80;;;;;;5043360;28;20093;-79
2023/10/14 00:19:18;;;;;;;0.98;0.63;;;19.80;74.70;;;;;;5019243;28;20033;-80
2023/10/14 00:21:45;;;;;;;0.93;0.80;;;19.80;74.80;;;;;;5013407;28;20034;-79
2023/10/14 00:24:16;;;;;;;1.10;1.00;;;19.80;74.80;;;;;;5028259;28;20032;-79
2023/10/14 00:26:47;;;;;;;1.00;0.80;;;19.80;74.80;;;;;;5019297;28;20083;-78
2023/10/14 00:31:46;;;;;;;0.95;0.90;;;19.70;74.80;;;;;;5030394;28;20033;-80
2023/10/14 00:34:14;;;;;;;0.80;0.80;;;19.70;74.80;;;;;;5031154;28;20044;-79
2023/10/14 00:36:40;;;;;;;1.42;0.77;;;19.70;74.80;;;;;;5045639;28;20052;-79
2023/10/14 00:39:24;;;;;;;0.93;0.90;;;19.70;74.90;;;;;;5017617;28;20300;-79
2023/10/14 00:41:50;;;;;;;1.23;0.80;;;19.60;74.90;;;;;;5036182;28;20030;-78
2023/10/14 00:44:18;;;;;;;1.13;0.88;;;19.60;74.90;;;;;;5030008;28;20064;-79
2023/10/14 00:46:50;;;;;;;0.98;0.88;;;19.60;75.00;;;;;;5033623;28;20116;-78
2023/10/14 00:49:34;;;;;;;1.30;0.80;;;19.50;75.00;;;;;;5013257;28;20037;-80
2023/10/14 00:52:09;;;;;;;1.10;0.90;;;19.50;75.10;;;;;;5032330;28;20033;-78
2023/10/14 00:59:54;;;;;;;1.48;0.80;;;19.40;75.10;;;;;;5033466;28;20038;-79
2023/10/14 01:02:30;;;;;;;1.08;0.77;;;19.40;75.20;;;;;;5026787;28;20046;-78
2023/10/14 01:04:57;;;;;;;0.88;0.70;;;19.30;75.20;;;;;;5022413;28;20053;-78
2023/10/14 01:07:23;;;;;;;0.77;0.77;;;19.30;75.30;;;;;;5014251;28;20033;-78
2023/10/14 01:09:53;;;;;;;1.00;0.73;;;19.30;75.30;;;;;;5015430;28;20044;-79
2023/10/14 01:14:59;;;;;;;1.00;0.77;;;19.30;75.30;;;;;;5031877;28;20037;-79
2023/10/14 01:17:29;;;;;;;1.95;1.00;;;19.30;75.30;;;;;;5019235;28;20442;-80
2023/10/14 01:20:10;;;;;;;1.25;0.85;;;19.20;75.30;;;;;;5007677;28;20037;-79
2023/10/14 01:22:38;;;;;;;1.05;0.77;;;19.20;75.40;;;;;;5029063;28;20025;-79
2023/10/14 01:25:10;;;;;;;1.10;0.95;;;19.20;75.40;;;;;;4999647;28;20033;-79
2023/10/14 01:27:37;;;;;;;1.08;0.80;;;19.20;75.40;;;;;;5019685;28;20029;-78
2023/10/14 01:30:10;;;;;;;0.73;0.60;;;19.10;75.40;;;;;;5023733;28;20033;-79
2023/10/14 01:35:12;;;;;;;1.70;0.70;;;19.10;75.40;;;;;;5046765;28;20029;-78
2023/10/14 01:37:45;;;;;;;0.98;0.68;;;19.10;75.40;;;;;;5031408;28;20505;-78
2023/10/14 01:43:30;;;;;;;1.00;0.90;;;19.00;75.40;;;;;;5032306;28;20037;-80
2023/10/14 01:45:50;;;;;;;0.60;0.60;;;19.00;75.50;;;;;;5016988;28;20049;-79
2023/10/14 01:48:21;;;;;;;1.23;0.60;;;19.00;75.40;;;;;;5032177;28;20462;-80
2023/10/14 01:50:56;;;;;;;0.70;0.70;;;19.00;75.50;;;;;;5033734;28;20029;-78
2023/10/14 01:53:31;;;;;;;0.73;0.73;;;19.00;75.60;;;;;;5031492;28;20061;-79
2023/10/14 01:56:00;;;;;;;0.63;0.63;;;18.90;75.50;;;;;;5015466;28;20040;-78
2023/10/14 02:01:04;;;;;;;1.00;0.70;;;18.80;75.40;;;;;;5013708;28;20096;-78
2023/10/14 02:03:41;;;;;;;1.33;0.90;;;18.80;75.50;;;;;;5031317;28;20136;-79
2023/10/14 02:06:16;;;;;;;1.75;0.82;;;18.80;75.50;;;;;;5015360;28;20065;-80
2023/10/14 02:08:48;;;;;;;1.63;0.90;;;18.80;75.50;;;;;;5030783;28;20033;-79
2023/10/14 02:11:20;;;;;;;0.80;0.80;;;18.70;75.40;;;;;;4993180;28;20029;-78
2023/10/14 02:13:49;;;;;;;1.30;0.90;;;18.70;75.50;;;;;;5014558;28;20050;-80
2023/10/14 02:16:16;;;;;;;1.48;0.90;;;18.70;75.50;;;;;;5036816;28;20112;-78
2023/10/14 02:18:42;;;;;;;2.00;0.90;;;18.70;75.60;;;;;;5002880;28;20049;-78
2023/10/14 02:21:11;;;;;;;1.55;1.17;;;18.60;75.50;;;;;;5040361;28;20034;-80
2023/10/14 02:23:49;;;;;;;1.13;1.00;;;18.60;75.50;;;;;;5040040;28;20037;-79
2023/10/14 02:26:22;;;;;;;1.73;1.20;;;18.60;75.50;;;;;;5027015;28;20417;-79
2023/10/14 02:28:51;;;;;;;0.90;0.80;;;18.60;75.60;;;;;;5030047;28;20531;-78
2023/10/14 02:34:03;;;;;;;2.35;1.00;;;18.50;75.50;;;;;;5026780;28;20041;-79
2023/10/14 02:36:29;;;;;;;0.82;0.80;;;18.50;75.60;;;;;;5052560;28;20102;-78
2023/10/14 02:38:56;;;;;;;2.97;1.20;;;18.50;75.60;;;;;;4998946;28;20127;-77
2023/10/14 02:41:27;;;;;;;1.20;0.80;;;18.50;76.20;;;;;;5030079;28;20030;-77
2023/10/14 02:44:44;;;;;;;1.92;1.00;;;18.40;75.60;;;;;;5022676;28;20552;-77
2023/10/14 02:46:46;;;;;;;1.65;0.98;;;18.40;75.60;;;;;;5040801;28;20040;-77
2023/10/14 02:49:18;;;;;;;2.03;1.10;;;18.40;75.60;;;;;;4985449;28;20056;-77
2023/10/14 02:51:45;;;;;;;2.38;0.90;;;18.40;75.70;;;;;;5015361;28;20033;-78
2023/10/14 02:54:15;;;;;;;1.70;1.02;;;18.30;75.60;;;;;;5030974;28;20037;-78
2023/10/14 02:59:20;;;;;;;1.13;0.95;;;18.30;75.60;;;;;;5040895;28;20136;-78
2023/10/14 03:07:23;;;;;;;1.83;1.10;;;18.20;75.60;;;;;;5040313;28;20459;-78
2023/10/14 03:09:50;;;;;;;2.53;1.10;;;18.20;75.60;;;;;;5031142;28;20056;-78
2023/10/14 03:12:18;;;;;;;1.65;1.00;;;18.10;75.50;;;;;;5030064;28;20441;-79
2023/10/14 03:14:55;;;;;;;1.38;0.95;;;18.10;75.50;;;;;;5009073;28;20043;-78
2023/10/14 03:17:25;;;;;;;4.00;1.00;;;18.10;76.20;;;;;;5035893;28;20030;-78
2023/10/14 03:19:54;;;;;;;3.90;1.23;;;18.10;75.60;;;;;;5010964;28;20160;-79
2023/10/14 03:22:23;;;;;;;1.92;1.20;;;18.00;75.50;;;;;;5000154;28;20025;-79
2023/10/14 03:24:55;;;;;;;1.83;1.00;;;18.00;75.50;;;;;;5030440;28;20464;-78
2023/10/14 03:27:21;;;;;;;1.38;0.98;;;18.00;75.60;;;;;;5007051;28;20474;-78
2023/10/14 03:29:54;;;;;;;1.63;1.05;;;17.90;75.50;;;;;;5013615;28;20037;-79
2023/10/14 03:32:32;;;;;;;2.13;0.95;;;17.90;75.50;;;;;;5014569;28;20025;-78
2023/10/14 03:34:59;;;;;;;1.30;1.00;;;17.90;75.60;;;;;;5031166;28;20034;-79
2023/10/14 03:37:26;;;;;;;2.42;1.02;;;17.80;75.60;;;;;;5024426;28;20041;-77
2023/10/14 03:42:42;;;;;;;1.42;1.10;;;17.70;75.60;;;;;;5036048;28;20091;-78
2023/10/14 03:45:20;;;;;;;1.63;1.00;;;17.70;75.50;;;;;;5018689;28;20033;-78
2023/10/14 03:47:51;;;;;;;0.93;0.90;;;17.80;75.60;;;;;;5046403;28;20060;-78
2023/10/14 03:50:23;;;;;;;3.30;0.95;;;17.70;75.60;;;;;;5036389;28;20029;-78
2023/10/14 03:52:51;;;;;;;1.52;1.10;;;17.60;75.50;;;;;;5016037;28;20041;-78
2023/10/14 03:55:24;;;;;;;1.60;1.02;;;17.60;75.60;;;;;;5029983;28;20021;-78
2023/10/14 03:57:52;;;;;;;1.65;1.27;;;17.60;75.60;;;;;;5013156;28;20099;-77
2023/10/14 04:00:36;;;;;;;0.85;0.73;;;17.50;75.50;;;;;;5039091;28;20079;-77
2023/10/14 04:03:11;;;;;;;1.67;1.10;;;17.50;75.60;;;;;;5029747;28;20057;-78
2023/10/14 04:05:38;;;;;;;;;;;17.40;75.50;;;;;;5030572;28;20044;-77
2023/10/14 04:08:05;;;;;;;3.05;1.00;;;17.40;75.40;;;;;;5029783;28;19916;-78
2023/10/14 04:10:36;;;;;;;1.27;1.00;;;17.40;75.40;;;;;;5030926;28;20033;-79
2023/10/14 04:13:04;;;;;;;3.42;1.30;;;17.40;75.50;;;;;;5014380;28;20582;-79
2023/10/14 04:17:56;;;;;;;1.73;0.90;;;17.30;75.50;;;;;;5013728;28;20048;-78
2023/10/14 04:20:22;;;;;;;2.88;1.10;;;17.30;75.50;;;;;;4980908;28;20475;-78
2023/10/14 04:22:53;;;;;;;2.15;1.00;;;17.20;75.50;;;;;;5028501;28;20029;-78
2023/10/14 04:25:19;;;;;;;2.55;1.20;;;17.20;75.50;;;;;;5036661;28;20116;-78
2023/10/14 04:35:24;;;;;;;1.65;1.20;;;17.10;75.50;;;;;;5037832;28;20058;-79
2023/10/14 04:37:55;;;;;;;2.22;1.00;;;17.10;75.60;;;;;;5028075;28;20029;-77
2023/10/14 04:43:19;;;;;;;1.67;1.00;;;17.00;75.50;;;;;;5029890;28;20034;-77
2023/10/14 04:46:12;;;;;;;2.35;1.23;;;17.00;75.60;;;;;;5028203;28;20029;-77
2023/10/14 04:48:39;;;;;;;1.40;0.90;;;16.90;75.50;;;;;;5031261;28;20033;-79
2023/10/14 04:51:09;;;;;;;1.50;0.90;;;16.90;75.50;;;;;;5003505;28;20029;-78
2023/10/14 04:53:36;;;;;;;1.77;1.15;;;16.90;75.50;;;;;;5033772;28;20022;-78
2023/10/14 04:56:08;;;;;;;2.92;1.10;;;16.90;75.50;;;;;;5013421;28;20489;-77
2023/10/14 04:58:34;;;;;;;2.35;1.00;;;16.80;75.40;;;;;;5027172;28;20499;-78
2023/10/14 05:01:09;;;;;;;2.65;1.02;;;16.80;75.50;;;;;;5035137;28;20030;-78
2023/10/14 05:03:34;;;;;;;1.50;1.10;;;16.80;75.50;;;;;;5042609;28;20088;-79
2023/10/14 05:08:44;;;;;;;1.75;1.23;;;16.70;75.50;;;;;;5016953;28;20030;-80
2023/10/14 05:11:13;;;;;;;2.78;1.20;;;16.70;75.50;;;;;;5006363;28;20029;-77
2023/10/14 05:13:42;;;;;;;2.33;1.10;;;16.70;75.50;;;;;;5042837;28;20104;-78
2023/10/14 05:16:15;;;;;;;1.83;1.05;;;16.60;75.50;;;;;;5015209;28;20034;-77
2023/10/14 05:18:48;;;;;;;1.77;1.20;;;16.60;75.50;;;;;;5008560;28;20034;-78
2023/10/14 05:21:35;;;;;;;1.20;0.90;;;16.50;75.50;;;;;;5029476;28;20030;-77
2023/10/14 05:23:59;;;;;;;0.98;0.75;;;16.50;75.50;;;;;;5013164;28;20587;-78
2023/10/14 05:26:27;;;;;;;2.45;1.17;;;16.50;75.50;;;;;;5005961;28;20041;-79
2023/10/14 05:28:54;;;;;;;2.22;1.10;;;16.50;75.50;;;;;;5021407;28;20068;-78
2023/10/14 05:31:20;;;;;;;1.45;1.00;;;16.50;75.50;;;;;;5038763;28;20025;-78
2023/10/14 05:33:48;;;;;;;1.58;0.95;;;16.40;75.40;;;;;;5032963;28;20026;-79
2023/10/14 05:36:14;;;;;;;2.60;1.20;;;16.40;75.40;;;;;;5022958;28;20025;-78
2023/10/14 05:38:41;;;;;;;2.55;1.02;;;16.40;75.40;;;;;;5031608;28;20033;-79
2023/10/14 05:41:11;;;;;;;2.53;1.13;;;16.40;75.50;;;;;;5041066;28;20037;-78
2023/10/14 05:43:37;;;;;;;2.78;1.08;;;16.30;75.40;;;;;;5031210;28;20033;-78
2023/10/14 05:46:12;;;;;;;1.70;1.05;;;16.30;75.40;;;;;;5012025;28;20504;-78
2023/10/14 05:48:37;;;;;;;2.78;1.00;;;16.30;75.50;;;;;;5020710;28;20057;-79
2023/10/14 05:51:04;;;;;;;1.30;1.00;;;16.30;75.50;;;;;;5033365;28;20111;-79
2023/10/14 05:53:31;;;;;;;1.85;1.10;;;16.20;75.50;;;;;;5019982;28;20056;-78
2023/10/14 05:55:58;;;;;;;3.13;1.20;;;16.20;75.50;;;;;;5011630;28;20391;-78
2023/10/14 05:58:28;;;;;;;1.48;1.00;;;16.20;75.50;;;;;;5021555;28;20030;-78
2023/10/14 06:00:56;;;;;;;2.80;1.20;;;16.10;75.40;;;;;;5033976;28;20034;-77
2023/10/14 06:03:22;;;;;;;2.20;1.35;;;16.10;75.40;;;;;;5031885;28;20037;-79
2023/10/14 06:05:47;;;;;;;1.75;1.02;;;16.10;75.40;;;;;;5032155;28;20363;-78
2023/10/14 06:08:16;;;;;;;2.00;1.00;;;16.10;75.50;;;;;;4999875;28;20083;-77
2023/10/14 06:10:42;;;;;;;2.08;1.20;;;16.10;75.50;;;;;;5015860;28;20029;-78
2023/10/14 06:13:09;;;;;;;2.05;1.20;;;16.10;75.50;;;;;;5032857;28;20108;-78
2023/10/14 06:15:40;;;;;;;2.40;1.30;;;16.00;75.50;;;;;;5039629;28;20382;-78
2023/10/14 06:18:08;;;;;;;2.38;1.30;;;16.00;75.50;;;;;;5035173;28;20038;-79
2023/10/14 06:20:34;;;;;;;1.52;1.30;;;16.00;75.50;;;;;;5039276;28;20588;-78
2023/10/14 06:23:00;;;;;;;1.40;0.88;;;15.90;75.40;;;;;;5031481;28;20036;-78
2023/10/14 06:25:29;;;;;;;1.88;1.00;;;15.90;75.40;;;;;;5018103;28;20034;-78
2023/10/14 06:27:55;;;;;;;1.52;1.02;;;15.90;75.40;;;;;;5013565;28;20037;-78
2023/10/14 06:30:21;;;;;;;2.42;1.10;;;15.90;75.40;;;;;;5016839;28;20026;-79
2023/10/14 06:33:03;;;;;;;1.92;1.10;;;15.90;75.40;;;;;;5015005;28;20099;-78
2023/10/14 06:35:31;;;;;;;2.05;1.10;;;15.80;75.40;;;;;;5045798;28;20669;-78
2023/10/14 06:37:58;;;;;;;2.03;1.23;;;15.80;75.40;;;;;;5016397;28;20036;-78
2023/10/14 06:40:24;;;;;;;4.22;1.42;;;15.80;75.40;;;;;;5013969;28;20030;-78
2023/10/14 06:42:53;;;;;;;1.42;1.02;;;15.80;75.40;;;;;;5037505;28;20064;-78
2023/10/14 06:45:21;;;;;;;1.70;1.00;;;15.70;75.40;;;;;;5032118;28;20033;-79
2023/10/14 06:47:51;;;;;;;1.60;1.10;;;15.70;75.40;;;;;;5032328;28;20095;-80
2023/10/14 06:50:23;;;;;;;3.40;1.17;;;15.70;75.50;;;;;;5029745;28;20041;-78
2023/10/14 06:52:59;;;;;;;2.10;1.05;;;15.70;75.40;;;;;;5016600;28;20030;-77
2023/10/14 06:55:26;;;;;;;1.75;1.10;;;15.70;75.40;;;;;;5039379;28;20052;-78
2023/10/14 06:57:55;;;;;;;1.92;1.23;;;15.70;75.50;;;;;;5013464;28;20092;-78
2023/10/14 07:00:31;;;;;;;3.45;1.25;;;15.70;75.50;;;;;;4998504;28;20036;-78
2023/10/14 07:03:00;;;;;;;1.10;0.85;;;15.60;75.40;;;;;;5001672;28;20045;-78
2023/10/14 07:05:29;;;;;;;1.65;1.20;;;15.60;75.50;;;;;;5034760;28;20041;-78
2023/10/14 07:07:59;;;;;;;2.03;1.02;;;15.60;75.50;;;;;;5039233;28;20025;-78
2023/10/14 07:10:28;;;;;;;1.25;1.10;;;15.60;75.50;;;;;;5017984;28;20026;-78
2023/10/14 07:12:57;;;;;;;2.38;1.25;;;15.50;75.40;;;;;;5034961;28;20036;-78
2023/10/14 07:15:25;;;;;;;1.30;0.95;;;15.60;75.50;;;;;;5035961;28;20497;-78
2023/10/14 07:17:50;;;;;;;1.73;1.10;;;15.50;75.50;;;;;;5014720;28;20037;-78
2023/10/14 07:20:17;;;;;;;2.03;1.33;;;15.50;75.50;;;;;;5035899;28;20053;-79
2023/10/14 07:22:43;;;;;;;2.38;1.13;;;15.50;75.50;;;;;;5033375;28;20036;-78
2023/10/14 07:25:10;;;;;;;2.90;1.08;;;15.50;75.50;;;;;;5038505;28;20030;-78
2023/10/14 07:27:39;;;;;;;2.47;1.30;;;15.50;75.60;;;;;;5033176;28;20048;-79
2023/10/14 07:30:15;;;;;;;1.67;1.00;;;15.50;75.50;;;;;;5036596;28;20033;-78
2023/10/14 07:32:42;;;;;;;2.90;1.25;;;15.40;75.50;;;;;;5038324;28;20055;-78
2023/10/14 07:35:11;;;;;;;2.08;1.00;;;15.50;75.60;;;;;;5017040;28;20481;-77
2023/10/14 07:37:42;;;;;;;2.20;1.20;;;15.40;75.50;;;;;;5022865;28;20052;-77
2023/10/14 07:40:11;;;;;;;1.55;1.05;;;15.40;75.60;;;;;;5022417;28;20116;-76
2023/10/14 07:42:40;;;;;;;1.77;1.23;;;15.40;75.60;;;;;;5030966;28;20375;-77
2023/10/14 07:45:10;;;;;;;2.97;1.10;;;15.40;75.60;;;;;;5031570;28;20025;-76
2023/10/14 07:47:38;;;;;;;3.25;1.40;;;15.40;75.60;;;;;;5018207;28;20042;-86
2023/10/14 07:50:09;;;;;;;1.75;1.15;;;15.40;75.60;;;;;;5021949;28;20120;-77
2023/10/14 07:52:37;;;;;;;1.63;1.00;;;15.40;75.60;;;;;;5030968;28;20053;-77
2023/10/14 07:55:04;;;;;;;2.85;1.30;;;15.30;75.60;;;;;;5032892;28;20656;-78
2023/10/14 07:57:31;;;;;;;1.08;0.88;;;15.40;75.60;;;;;;5034501;28;20025;-77
2023/10/14 07:59:59;;;;;;;2.38;1.17;;;15.30;76.20;;;;;;5017074;28;20048;-78
2023/10/14 08:02:26;;;;;;;2.03;1.20;;;15.40;75.80;;;;;;4997436;28;20489;-78
2023/10/14 08:04:53;;;;;;;1.55;0.90;;;15.30;75.60;;;;;;5006263;28;20091;-77
2023/10/14 08:07:19;;;;;;;1.58;1.00;;;15.30;75.60;;;;;;5031181;28;20044;-78
2023/10/14 08:09:45;;;;;;;1.83;1.20;;;15.30;75.60;;;;;;5030415;28;20083;-78
2023/10/14 08:12:14;;;;;;;2.65;1.15;;;15.30;75.60;;;;;;5046095;28;20124;-78
2023/10/14 08:14:44;;;;;;;1.30;1.15;;;15.30;75.60;;;;;;4998472;28;20033;-77
2023/10/14 08:17:12;;;;;;;3.10;1.10;;;15.30;75.60;;;;;;5014686;28;20037;-76
2023/10/14 08:19:39;;;;;;;2.22;1.30;;;15.30;75.60;;;;;;5030133;28;20037;-77
2023/10/14 08:22:05;;;;;;;2.80;1.20;;;15.30;75.60;;;;;;5029567;28;20037;-76
2023/10/14 08:24:31;;;;;;;2.03;1.13;;;15.30;75.60;;;;;;5024221;28;20108;-77
2023/10/14 08:26:57;;;;;;;2.83;1.42;;;15.30;75.60;;;;;;5035721;28;20029;-77
2023/10/14 08:29:22;;;;;;;2.58;1.17;;;15.30;75.70;;;;;;5014903;28;20113;-77
2023/10/14 08:31:53;;;;;;;1.98;1.30;;;15.30;75.60;;;;;;5014494;28;20128;-77
2023/10/14 08:34:23;;;;;;;3.22;1.35;;;15.30;75.70;;;;;;5042261;28;20094;-77
2023/10/14 08:36:49;;;;;;;2.25;1.17;;;15.30;75.70;;;;;;5022194;28;20025;-77
2023/10/14 08:39:15;;;;;;;3.10;1.50;;;15.30;75.70;;;;;;5035554;28;20033;-76
2023/10/14 08:41:47;;;;;;;2.90;1.38;;;15.30;75.70;;;;;;5019913;28;20371;-77
2023/10/14 08:44:18;;;;;;;2.03;1.27;;;15.30;75.70;;;;;;5041163;28;20115;-76
2023/10/14 08:46:45;;;;;;;2.58;1.20;;;15.30;75.70;;;;;;5037477;28;20045;-79
2023/10/14 08:49:12;;;;;;;2.10;1.00;;;15.30;75.60;;;;;;5022605;28;20442;-77
2023/10/14 08:51:40;;;;;;;2.35;1.17;;;15.40;75.70;;;;;;5018922;28;20026;-77
2023/10/14 08:54:10;;;;;;;2.40;1.30;;;15.40;75.70;;;;;;5045227;28;20533;-76
2023/10/14 08:56:36;;;;;;;3.08;1.40;;;15.40;75.70;;;;;;5045377;28;20116;-76
2023/10/14 08:59:03;;;;;;;2.10;1.30;;;15.40;75.60;;;;;;5044820;28;20109;-77
2023/10/14 09:01:31;;;;;;;2.85;1.48;;;15.40;75.70;;;;;;5018822;28;20036;-76
2023/10/14 09:03:59;;;;;;;1.67;1.13;;;15.40;75.70;;;;;;5043331;28;20049;-77
2023/10/14 09:06:25;;;;;;;1.70;0.90;;;15.50;75.70;;;;;;5046576;28;20033;-77
2023/10/14 09:08:52;;;;;;;1.67;1.20;;;15.50;75.70;;;;;;5035925;28;20025;-77
2023/10/14 09:11:33;;;;;;;2.22;1.17;;;15.50;75.70;;;;;;5004496;28;20025;-77
2023/10/14 09:14:06;;;;;;;1.70;1.10;;;15.50;75.80;;;;;;5037827;28;20037;-77
2023/10/14 09:16:34;;;;;;;2.30;1.27;;;15.60;75.70;;;;;;5028464;28;20111;-77
2023/10/14 09:19:04;;;;;;;3.30;1.25;;;15.60;75.60;;;;;;5025517;28;20034;-80
2023/10/14 09:21:32;;;;;;;2.60;1.20;;;15.60;75.70;;;;;;5043205;28;20123;-77
2023/10/14 09:24:07;;;;;;;3.22;1.58;;;15.60;75.60;;;;;;5017489;28;20568;-77
2023/10/14 09:26:45;;;;;;;3.50;1.38;;;15.60;75.70;;;;;;5034815;28;20032;-79
2023/10/14 09:29:11;;;;;;;2.35;1.30;;;15.70;75.70;;;;;;5036464;28;20036;-79
2023/10/14 09:31:38;;;;;;;1.98;1.20;;;15.70;75.60;;;;;;5036128;28;20037;-77
2023/10/14 09:34:04;;;;;;;2.90;1.35;;;15.80;75.70;;;;;;5017994;28;20026;-76
2023/10/14 09:36:34;;;;;;;2.08;1.13;;;15.80;75.70;;;;;;5019962;28;20084;-76
2023/10/14 09:39:07;;;;;;;1.55;1.20;;;15.90;75.70;;;;;;5026241;28;20037;-78
2023/10/14 09:41:36;;;;;;;2.65;1.38;;;15.90;75.60;;;;;;5018647;28;20021;-78
2023/10/14 09:44:03;;;;;;;2.03;1.00;;;15.90;75.50;;;;;;5035904;28;20028;-78
2023/10/14 09:46:31;;;;;;;3.05;1.20;;;15.90;75.50;;;;;;5040715;28;20045;-77
2023/10/14 09:48:57;;;;;;;1.67;1.00;;;15.90;75.40;;;;;;5002332;28;20033;-77
2023/10/14 09:51:24;;;;;;;3.63;1.30;;;16.00;75.40;;;;;;5039704;28;20112;-77
2023/10/14 09:53:51;;;;;;;2.30;1.27;;;16.00;75.40;;;;;;5032451;28;20030;-77
2023/10/14 09:56:18;;;;;;;3.28;1.20;;;16.10;75.40;;;;;;5003954;28;20025;-78
2023/10/14 09:58:46;;;;;;;2.38;1.35;;;16.10;75.30;;;;;;5016814;28;20037;-79
2023/10/14 10:01:19;;;;;;;2.92;1.30;;;16.10;75.30;;;;;;5027560;28;20037;-77
2023/10/14 10:03:56;;;;;;;1.77;1.02;;;16.20;75.30;;;;;;5035450;28;20119;-77
2023/10/14 10:07:02;;;;;;;3.83;1.38;;;16.20;75.20;;;;;;5036637;28;20040;-77
2023/10/14 10:10:00;;;;;;;2.67;1.40;;;16.20;75.10;;;;;;5028569;28;20080;-77
2023/10/14 10:12:30;;;;;;;3.50;1.60;;;16.30;75.10;;;;;;5037373;28;20291;-77
2023/10/14 10:15:06;;;;;;;3.78;1.67;;;16.30;75.00;;;;;;5022928;28;20171;-77
2023/10/14 10:17:37;;;;;;;5.18;1.60;;;16.30;75.00;;;;;;5034859;28;20133;-76
2023/10/14 10:20:09;;;;;;;3.20;1.40;;;16.30;74.90;;;;;;5033195;28;20025;-77
2023/10/14 10:22:50;;;;;;;3.30;1.17;;;16.40;74.90;;;;;;5039119;28;20017;-77
2023/10/14 10:25:18;;;;;;;3.22;1.20;;;16.40;74.90;;;;;;5035736;28;20311;-78
2023/10/14 10:27:49;;;;;;;2.70;1.17;;;16.40;74.80;;;;;;5032339;28;20112;-78
2023/10/14 10:30:18;;;;;;;3.28;1.27;;;16.40;74.80;;;;;;5028479;28;20099;-80
2023/10/14 10:32:48;;;;;;;2.47;1.58;;;16.50;74.80;;;;;;5045753;28;20018;-77
2023/10/14 10:35:16;;;;;;;2.63;1.00;;;16.50;74.70;;;;;;5040003;28;20021;-78
2023/10/14 10:37:46;;;;;;;2.58;1.33;;;16.50;74.70;;;;;;5025309;28;20042;-78
2023/10/14 10:40:13;;;;;;;2.30;1.15;;;16.60;74.70;;;;;;5019059;28;20106;-77
2023/10/14 10:42:44;;;;;;;2.88;1.13;;;16.50;74.60;;;;;;5032663;28;20017;-77
2023/10/14 10:45:22;;;;;;;1.25;1.05;;;16.60;74.60;;;;;;5019723;28;20036;-78
2023/10/14 10:47:56;;;;;;;2.05;0.98;;;16.50;74.60;;;;;;5016777;28;20037;-78
2023/10/14 10:50:27;;;;;;;2.33;1.30;;;16.60;74.60;;;;;;5035031;28;20123;-77
2023/10/14 10:53:13;;;;;;;3.38;1.30;;;16.60;74.60;;;;;;5038825;28;20300;-78
2023/10/14 10:55:46;;;;;;;2.15;1.10;;;16.60;74.60;;;;;;4997138;28;20103;-77
2023/10/14 10:58:13;;;;;;;2.03;1.10;;;16.60;74.60;;;;;;5028143;28;20029;-78
2023/10/14 11:00:47;;;;;;;1.58;1.00;;;16.60;74.60;;;;;;5014151;28;20025;-78
2023/10/14 11:03:15;;;;;;;2.25;1.02;;;16.60;74.70;;;;;;5036981;28;20053;-80
2023/10/14 11:05:47;;;;;;;0.90;0.80;;;16.60;74.70;;;;;;5032182;28;20115;-77
2023/10/14 11:08:16;;;;;;;3.75;1.20;;;16.60;74.80;;;;;;5038413;28;20025;-77
2023/10/14 11:10:43;;;;;;;2.15;1.23;;;16.60;74.80;;;;;;5014078;28;20021;-78
2023/10/14 11:13:13;;;;;;;2.53;1.30;;;16.60;74.80;;;;;;5034585;28;20147;-77
2023/10/14 11:15:43;;;;;;;1.50;0.98;;;16.60;74.90;;;;;;5043256;28;20057;-77
2023/10/14 11:18:10;;;;;;;2.65;1.45;;;16.60;74.90;;;;;;5034814;28;20072;-78
2023/10/14 11:20:46;;;;;;;2.47;1.10;;;16.60;74.80;;;;;;5020629;28;20108;-78
2023/10/14 11:23:12;;;;;;;3.00;1.10;;;16.50;74.90;;;;;;5018046;28;20108;-78
2023/10/14 11:25:44;;;;;;;2.15;1.02;;;16.60;74.90;;;;;;5019027;28;20036;-77
2023/10/14 11:28:14;;;;;;;2.30;1.20;;;16.60;74.80;;;;;;5030122;28;20030;-78
2023/10/14 11:30:47;;;;;;;3.10;1.25;;;16.60;74.80;;;;;;5015264;28;20033;-77
2023/10/14 11:33:17;;;;;;;4.47;1.30;;;16.60;74.80;;;;;;5044763;28;20041;-77
2023/10/14 11:35:43;;;;;;;3.00;1.33;;;16.60;74.80;;;;;;5020863;28;20039;-78
2023/10/14 11:38:13;;;;;;;2.05;1.27;;;16.60;74.70;;;;;;5032454;28;20033;-77
2023/10/14 11:40:45;;;;;;;1.83;1.00;;;16.60;74.70;;;;;;5024097;28;20029;-78
2023/10/14 11:43:11;;;;;;;2.00;1.10;;;16.60;74.70;;;;;;5031234;28;20033;-78
2023/10/14 11:45:43;;;;;;;2.78;1.10;;;16.60;74.60;;;;;;5016134;28;20033;-78
2023/10/14 11:48:22;;;;;;;3.20;1.25;;;16.70;74.60;;;;;;5042103;28;20054;-77
2023/10/14 11:50:57;;;;;;;1.77;0.90;;;16.60;74.50;;;;;;5034268;28;20026;-77
2023/10/14 11:53:27;;;;;;;1.52;1.00;;;16.70;74.50;;;;;;5030293;28;20123;-79
2023/10/14 11:56:00;;;;;;;1.10;1.00;;;16.60;74.40;;;;;;5045384;28;20028;-77
2023/10/14 11:58:31;;;;;;;1.73;1.02;;;16.60;74.40;;;;;;5046657;28;20052;-77
2023/10/14 12:00:57;;;;;;;1.40;1.05;;;16.60;74.40;;;;;;5034851;28;20040;-77
2023/10/14 12:03:27;;;;;;;3.05;1.35;;;16.70;74.40;;;;;;5031373;28;20048;-77
2023/10/14 12:05:57;;;;;;;0.98;0.85;;;16.70;74.40;;;;;;5015813;28;20045;-78
2023/10/14 12:08:28;;;;;;;2.03;1.10;;;16.60;74.30;;;;;;5029773;28;20033;-78
2023/10/14 12:10:54;;;;;;;3.75;1.40;;;16.70;74.30;;;;;;5031595;28;20087;-82
2023/10/14 12:13:21;;;;;;;2.60;1.30;;;16.70;74.30;;;;;;5041677;28;20026;-79
2023/10/14 12:15:47;;;;;;;1.58;0.85;;;16.70;74.30;;;;;;5034487;28;20527;-77
2023/10/14 12:18:13;;;;;;;2.05;1.00;;;16.70;74.30;;;;;;5014193;28;20034;-77
2023/10/14 12:20:41;;;;;;;2.97;1.20;;;16.70;74.30;;;;;;5006564;28;20057;-77
2023/10/14 12:23:06;;;;;;;2.60;1.20;;;16.70;74.30;;;;;;5029438;28;20033;-77
2023/10/14 12:25:32;;;;;;;2.72;1.00;;;16.70;74.30;;;;;;5040093;28;20029;-77
2023/10/14 12:27:58;;;;;;;1.95;1.20;;;16.70;74.20;;;;;;5025282;28;20080;-77
2023/10/14 12:30:40;;;;;;;1.75;1.27;;;16.80;74.30;;;;;;5020137;28;20034;-77
2023/10/14 12:33:07;;;;;;;1.88;1.10;;;16.80;74.30;;;;;;5009976;28;20159;-77
2023/10/14 12:35:40;;;;;;;1.88;1.13;;;16.80;74.20;;;;;;5037905;28;20029;-76
2023/10/14 12:38:12;;;;;;;3.72;1.30;;;16.80;74.20;;;;;;4975977;28;20034;-77
2023/10/14 12:40:39;;;;;;;2.10;1.05;;;16.80;74.10;;;;;;5038193;28;20521;-77
2023/10/14 12:43:05;;;;;;;3.28;1.48;;;16.80;74.00;;;;;;5030417;28;20033;-77
2023/10/14 12:45:32;;;;;;;2.60;1.10;;;16.80;74.00;;;;;;5043568;28;20060;-77
2023/10/14 12:48:09;;;;;;;1.63;1.10;;;16.80;74.00;;;;;;5036438;28;20164;-77
2023/10/14 12:50:40;;;;;;;3.20;1.35;;;16.90;74.00;;;;;;5034350;28;20054;-77
2023/10/14 12:53:08;;;;;;;1.50;1.15;;;16.90;74.00;;;;;;5022904;28;20029;-77
2023/10/14 12:55:36;;;;;;;2.85;1.15;;;16.90;74.60;;;;;;5015660;28;20022;-77
2023/10/14 12:58:02;;;;;;;2.45;1.13;;;16.90;74.00;;;;;;5013875;28;20117;-77
2023/10/14 13:00:29;;;;;;;1.63;1.02;;;16.90;73.90;;;;;;4986952;28;20460;-76
2023/10/14 13:02:59;;;;;;;2.80;1.10;;;16.90;73.90;;;;;;5041599;28;20053;-77
2023/10/14 13:05:27;;;;;;;2.97;1.45;;;16.90;73.90;;;;;;5033656;28;20482;-77
2023/10/14 13:07:55;;;;;;;1.90;1.10;;;16.90;73.80;;;;;;5020821;28;20428;-77
2023/10/14 13:10:25;;;;;;;3.67;1.20;;;16.90;73.80;;;;;;5043082;28;20116;-76
2023/10/14 13:12:58;;;;;;;2.47;1.20;;;17.00;73.90;;;;;;5019912;28;20059;-77
2023/10/14 13:15:30;;;;;;;1.67;1.00;;;17.00;73.90;;;;;;5041875;28;20037;-78
2023/10/14 13:18:07;;;;;;;2.35;1.10;;;17.00;73.80;;;;;;5037427;28;20090;-75
2023/10/14 13:20:35;;;;;;;2.78;1.00;;;17.00;73.80;;;;;;5045623;28;20033;-75
2023/10/14 13:23:09;;;;;;;2.75;1.10;;;17.00;73.70;;;;;;5029964;28;20033;-76
2023/10/14 13:25:36;;;;;;;3.08;1.10;;;17.00;73.70;;;;;;5019056;28;20025;-75
2023/10/14 13:28:13;;;;;;;1.92;1.20;;;17.00;73.50;;;;;;5034158;28;20464;-76
2023/10/14 13:30:47;;;;;;;3.05;1.20;;;17.10;73.40;;;;;;5042621;28;20477;-75
2023/10/14 13:33:16;;;;;;;1.95;1.48;;;17.10;73.40;;;;;;5053454;28;20030;-75
2023/10/14 13:35:43;;;;;;;2.85;1.17;;;17.10;73.30;;;;;;5041091;28;20097;-76
2023/10/14 13:38:10;;;;;;;2.08;1.10;;;17.10;73.20;;;;;;5029469;28;20029;-76
2023/10/14 13:40:40;;;;;;;1.67;1.08;;;17.10;73.10;;;;;;5027411;28;20029;-76
2023/10/14 13:43:09;;;;;;;2.58;1.10;;;17.10;73.10;;;;;;5047869;28;20080;-77
2023/10/14 13:45:40;;;;;;;1.67;0.95;;;17.10;73.20;;;;;;5041329;28;20079;-76
2023/10/14 13:48:06;;;;;;;3.10;1.48;;;17.10;73.20;;;;;;5023126;28;20486;-76
2023/10/14 13:50:37;;;;;;;2.28;0.90;;;17.10;73.20;;;;;;5046452;28;20028;-76